Impacts METAR Board
IDs:

KATL - Atlanta/Hartsfield I, GA, US

Updated at: 1500 UTC 03 Dec 2021
Potential Impact None Slight Moderate High
Time 03/03Z 03/04Z 03/05Z 03/06Z 03/07Z 03/08Z 03/09Z 03/10Z 03/11Z 03/12Z 03/13Z 03/14Z 03/15Z
Temp59 58 57 56 54 54 51 52 51 51 52 56 60
Dewpt47 47 47 47 47 47 46 47 46 47 47 49 49
Altim30.10 30.10 30.10 30.10 30.10 30.10 30.09 30.08 30.09 30.10 30.11 30.12 30.14
VIS10 10 10 10 10 10 10 10 10 10 10 10 10
CIG-- -- -- -- -- -- -- -- -- -- -- -- --
CoverCLRCLRCLRCLRCLRCLRFEWFEWFEWFEWFEWFEWFEW
FltCatVFRVFRVFRVFRVFRVFRVFRVFRVFRVFRVFRVFRVFR
WX--------------------------
WDir270270270290270280300280300300270290310
WSpd7 6 8 6 6 6 6 6 6 4 4 5 7
WGst-- -- -- -- -- -- -- -- -- -- -- -- --
Raw hourly METARs
KATL 030252Z 27007KT 10SM CLR 15/08 A3010 RMK AO2 SLP189 T01500083 53005 $
KATL 030352Z 27006KT 10SM CLR 14/08 A3010 RMK AO2 SLP189 T01440083 $
KATL 030452Z 27008KT 10SM CLR 14/08 A3010 RMK AO2 SLP189 T01390083 402330094 $
KATL 030552Z 29006KT 10SM CLR 13/08 A3010 RMK AO2 SLP189 T01330083 10178 20133 53002 $
KATL 030652Z 27006KT 10SM CLR 12/08 A3010 RMK AO2 SLP189 T01220083 $
KATL 030752Z 28006KT 10SM CLR 12/08 A3010 RMK AO2 SLP188 T01220083 $
KATL 030852Z 30006KT 10SM FEW250 11/08 A3009 RMK AO2 SLP186 T01060078 58004 $
KATL 030952Z 28006KT 10SM FEW250 11/08 A3008 RMK AO2 SLP184 T01110083 $
KATL 031052Z 30006KT 10SM FEW250 11/08 A3009 RMK AO2 SLP186 T01060078
KATL 031152Z 30004KT 10SM FEW250 11/08 A3010 RMK AO2 SLP190 T01060083 10133 20100 53003
KATL 031252Z 27004KT 10SM FEW250 11/08 A3011 RMK AO2 SLP194 T01110083
KATL 031352Z COR 29005KT 10SM FEW250 13/09 A3012 RMK AO2 SLP198 T01330094 $
KATL 031452Z 31007KT 10SM FEW250 16/09 A3014 RMK AO2 SLP203 T01560094 53013



Page loaded:  15:44 UTC  |   07:44 AM Pacific  |   08:44 AM Mountain  |   09:44 AM Central  |   10:44 AM Eastern

 

ADVISORIES

FORECASTS

FORECASTS

OBSERVATIONS

USER TOOLS

ABOUT US